Airfield :
LOGIN :

Register | Disclaimer

   EN    FR    IT 

 










Legend :    VFR   Marginal VFR   IFR   Intensive IFR   Very Intensive IFR
Visi :
Ceiling :
>= 8 km
>= 3000ft
5 to 8 km
1000 to 3000 ft
1500m to 5 km
500 to 1000 ft
800 to 1500m
200 to 500 ft
< 800m
< 200 ft
Symbols :   Thunderstorms  Fog  Heavy snow  Heavy precipitations  Wind > 20 kt
SIGMETs :     Misc.  Thunderstorms  Icing  Turbulence  Mountain Waves  Volcanic Ashes






- Airport Elevation : 142 ft
- IATA code : FLR


LIRQ - Firenze Amerigo Vespucci

CURRENT METAR :
  • 100550Z VRB01KT CAVOK 06/02 Q1023

EXPIRED METARs :
  • 100520Z VRB01KT CAVOK 05/02 Q1023
  • 100450Z 02002KT CAVOK 05/01 Q1023
  • 100420Z VRB02KT CAVOK 05/M00 Q1023
  • 100350Z VRB01KT CAVOK 04/M00 Q1023
  • 100320Z 07002KT CAVOK 05/00 Q1023

TAF TAF LIRQ
Valid from the 10 at 06:00 until the 11 at 06:00 UTC


100520Z 1006/1106 VRB05KT CAVOK
BECMG 1010/1012 04010KT
BECMG 1016/1018 VRB05KT



MET'MAP, your aeronautical weather chart ! - Copyright ORBIFLY December 2007 - Disclaimer

ORBIFLY MET'MAP TEAM :

Programming & Development : Alexandra Zaïnal
Concept & original design : Baudouin d'Aumeries
Assistance for programming : Marc-Olivier Méhu
Technical & hardware support : Manuel Goepfert

Contact : metmap@orbifly.com




SOURCES & CREDITS :

   NOAA